Time;durP1;ratioP1;P1;durP2;ratioP2;P2;SDS_P1;SDS_P2;PMS_P1;PMS_P2;Temp;Humidity;BMP_temperature;BMP_pressure;BME280_temperature;BME280_humidity;BME280_pressure;Samples;Min_cycle;Max_cycle;Signal;HPM_P1;HPM_P2
2021/03/12 00:00:59;;;;;;;11.80;3.30;;;;;;;-0.86;43.88;101037.39;125829;1099;104150;-79
2021/03/12 00:03:30;;;;;;;11.20;3.80;;;;;;;-0.89;40.91;101040.58;125734;1099;104198;-79
2021/03/12 00:06:04;;;;;;;11.13;4.07;;;;;;;-0.89;41.83;101038.00;125810;1099;104229;-79
2021/03/12 00:08:37;;;;;;;9.97;3.33;;;;;;;-0.89;42.12;101031.95;125735;1099;104159;-79
2021/03/12 00:11:07;;;;;;;10.80;2.80;;;;;;;-0.92;41.89;101030.00;125711;1099;104241;-79
2021/03/12 00:13:37;;;;;;;12.40;4.13;;;;;;;-0.93;42.03;101030.79;125716;1099;104320;-80
2021/03/12 00:16:07;;;;;;;11.13;3.53;;;;;;;-0.95;41.96;101028.08;125844;1099;104341;-79
2021/03/12 00:18:39;;;;;;;12.73;3.43;;;;;;;-0.94;41.16;101034.13;125918;1099;104191;-80
2021/03/12 00:21:09;;;;;;;15.93;3.77;;;;;;;-0.94;42.23;101028.97;125866;1099;104200;-79
2021/03/12 00:23:39;;;;;;;14.57;4.03;;;;;;;-0.95;42.08;101034.88;125870;1099;104699;-81
2021/03/12 00:26:08;;;;;;;12.80;3.70;;;;;;;-0.95;41.80;101035.80;125792;1097;104170;-79
2021/03/12 00:28:38;;;;;;;13.80;3.70;;;;;;;-0.95;42.94;101034.88;125677;1098;104239;-79
2021/03/12 00:31:08;;;;;;;12.07;4.23;;;;;;;-0.95;42.18;101021.99;125777;1099;104277;-80
2021/03/12 00:33:38;;;;;;;12.53;3.40;;;;;;;-0.96;41.96;101017.63;125855;1099;104299;-80
2021/03/12 00:36:07;;;;;;;12.77;3.87;;;;;;;-0.96;41.63;101018.52;125816;1099;104197;-80
2021/03/12 00:38:36;;;;;;;12.73;3.73;;;;;;;-0.96;41.94;101022.78;125874;1099;102817;-80
2021/03/12 00:41:07;;;;;;;8.90;3.43;;;;;;;-0.96;43.49;101010.80;125831;1099;104163;-79
2021/03/12 00:43:41;;;;;;;12.30;3.35;;;;;;;-0.94;42.71;101010.93;125780;1099;104246;-79
2021/03/12 00:46:26;;;;;;;13.50;4.00;;;;;;;-0.95;42.92;100996.23;125724;1099;104267;-80
2021/03/12 00:48:56;;;;;;;12.93;3.53;;;;;;;-0.91;41.90;100994.06;125821;1099;104194;-79
2021/03/12 00:51:26;;;;;;;16.53;4.30;;;;;;;-0.89;41.74;100993.31;125785;1099;104165;-80
2021/03/12 00:54:09;;;;;;;13.47;4.17;;;;;;;-0.85;43.01;100982.52;125656;1099;104163;-77
2021/03/12 00:56:38;;;;;;;11.20;3.70;;;;;;;-0.84;42.53;100981.73;125662;1099;104181;-77
2021/03/12 00:59:08;;;;;;;13.20;3.67;;;;;;;-0.84;42.37;100974.92;125676;1099;104178;-76
2021/03/12 01:01:43;;;;;;;19.63;3.97;;;;;;;-0.86;42.24;100973.86;125756;1099;104187;-79
2021/03/12 01:04:12;;;;;;;11.77;4.40;;;;;;;-0.88;42.61;100970.26;125808;1099;104398;-79
2021/03/12 01:06:41;;;;;;;10.63;3.73;;;;;;;-0.88;43.30;100957.38;125811;1099;104175;-80
2021/03/12 01:09:12;;;;;;;16.80;4.20;;;;;;;-0.84;42.22;100964.62;125805;1099;104290;-79
2021/03/12 01:11:41;;;;;;;11.30;3.20;;;;;;;-0.80;42.35;100955.48;125756;1099;104204;-80
2021/03/12 01:14:12;;;;;;;13.27;3.27;;;;;;;-0.78;43.82;100956.50;125784;1099;101782;-80
2021/03/12 01:16:43;;;;;;;15.47;4.23;;;;;;;-0.80;42.74;100946.06;125852;1099;104175;-80
2021/03/12 01:19:13;;;;;;;9.57;3.00;;;;;;;-0.75;44.06;100928.42;125702;1099;104683;-79
2021/03/12 01:21:42;;;;;;;15.90;4.23;;;;;;;-0.74;42.94;100930.25;125823;1099;104137;-79
2021/03/12 01:24:13;;;;;;;10.47;3.57;;;;;;;-0.71;42.84;100929.63;125783;1099;104169;-79
2021/03/12 01:26:49;;;;;;;16.93;4.00;;;;;;;-0.73;42.52;100929.48;125722;1099;104296;-80
2021/03/12 01:29:18;;;;;;;9.50;4.03;;;;;;;-0.71;43.21;100916.73;125781;1099;104186;-80
2021/03/12 01:31:58;;;;;;;12.67;3.50;;;;;;;-0.69;44.77;100910.92;125694;1099;104242;-80
2021/03/12 01:34:29;;;;;;;11.97;3.90;;;;;;;-0.70;42.93;100914.30;125703;1099;104166;-80
2021/03/12 01:36:58;;;;;;;15.43;4.50;;;;;;;-0.69;43.53;100907.45;125730;1099;104165;-80
2021/03/12 01:39:28;;;;;;;14.47;3.73;;;;;;;-0.67;43.92;100891.36;125854;1099;104162;-79
2021/03/12 01:41:57;;;;;;;10.50;3.87;;;;;;;-0.65;43.94;100909.54;125838;1099;104167;-80
2021/03/12 01:44:29;;;;;;;11.63;3.40;;;;;;;-0.66;44.11;100893.14;125813;1099;104241;-80
2021/03/12 01:46:58;;;;;;;11.83;3.63;;;;;;;-0.63;44.38;100884.79;125844;1099;104147;-79
2021/03/12 01:49:29;;;;;;;11.80;3.43;;;;;;;-0.61;43.96;100873.85;125761;1099;104101;-79
2021/03/12 01:51:58;;;;;;;23.33;4.73;;;;;;;-0.57;43.90;100877.59;125797;1099;104155;-80
2021/03/12 01:54:27;;;;;;;12.87;3.90;;;;;;;-0.57;44.03;100881.05;125787;1098;104171;-80
2021/03/12 01:57:04;;;;;;;19.07;4.10;;;;;;;-0.55;44.36;100881.19;125713;1099;104195;-80
2021/03/12 01:59:39;;;;;;;12.33;4.27;;;;;;;-0.54;43.94;100877.85;125800;1099;104226;-80
2021/03/12 02:02:27;;;;;;;20.33;4.97;;;;;;;-0.52;44.02;100873.72;125845;1099;104335;-79
2021/03/12 02:05:03;;;;;;;14.20;4.10;;;;;;;-0.47;43.67;100867.27;125858;1099;104175;-80
2021/03/12 02:07:32;;;;;;;16.77;4.00;;;;;;;-0.46;43.68;100866.51;125827;1099;104191;-80
2021/03/12 02:10:17;;;;;;;13.83;4.20;;;;;;;-0.43;44.12;100850.41;125702;1099;104207;-80
2021/03/12 02:12:57;;;;;;;11.10;3.23;;;;;;;-0.41;44.82;100857.48;125755;1099;104165;-79
2021/03/12 02:15:32;;;;;;;15.87;4.30;;;;;;;-0.41;44.77;100849.74;125732;1099;104242;-79
2021/03/12 02:18:07;;;;;;;17.93;4.17;;;;;;;-0.39;44.02;100837.91;125808;1096;104162;-80
2021/03/12 02:20:42;;;;;;;13.97;4.03;;;;;;;-0.33;44.51;100828.88;125764;1099;104341;-80
2021/03/12 02:23:17;;;;;;;12.53;4.17;;;;;;;-0.31;45.03;100819.58;125768;1099;104449;-80
2021/03/12 02:25:57;;;;;;;10.90;3.10;;;;;;;-0.30;45.31;100827.45;125835;1099;104153;-80
2021/03/12 02:28:27;;;;;;;12.20;3.70;;;;;;;-0.30;45.11;100814.55;125703;1099;104198;-80
2021/03/12 02:30:58;;;;;;;15.10;4.10;;;;;;;-0.33;45.39;100815.98;125700;1099;104162;-80
2021/03/12 02:33:32;;;;;;;8.63;3.30;;;;;;;-0.35;45.46;100822.70;125626;1099;104162;-79
2021/03/12 02:36:05;;;;;;;13.10;3.70;;;;;;;-0.37;44.77;100819.98;125754;1099;104370;-79
2021/03/12 02:38:51;;;;;;;9.67;3.57;;;;;;;-0.38;46.11;100819.06;125798;1099;102704;-80
2021/03/12 02:41:24;;;;;;;13.10;3.80;;;;;;;-0.40;45.10;100811.99;125752;1099;104312;-79
2021/03/12 02:43:55;;;;;;;16.63;3.37;;;;;;;-0.39;45.38;100816.36;125751;1099;104156;-80
2021/03/12 02:46:28;;;;;;;16.07;4.17;;;;;;;-0.41;45.63;100812.75;125859;1099;102274;-79
2021/03/12 02:48:59;;;;;;;14.17;4.00;;;;;;;-0.40;45.26;100801.68;126007;1099;104291;-79
2021/03/12 02:51:30;;;;;;;12.27;4.00;;;;;;;-0.41;45.96;100803.33;126725;1098;104264;-79
2021/03/12 02:54:01;;;;;;;14.63;4.50;;;;;;;-0.40;45.30;100797.41;126565;1099;102391;-80
2021/03/12 02:56:36;;;;;;;14.63;3.73;;;;;;;-0.40;45.19;100805.15;126532;1099;104076;-79
2021/03/12 02:59:06;;;;;;;12.60;4.00;;;;;;;-0.39;46.15;100795.72;126334;1099;104086;-79
2021/03/12 03:01:54;;;;;;;17.13;4.37;;;;;;;-0.38;46.40;100807.86;125832;1099;104319;-79
2021/03/12 03:04:32;;;;;;;15.50;4.20;;;;;;;-0.36;45.77;100806.30;125769;1098;102305;-79
2021/03/12 03:07:10;;;;;;;14.43;4.33;;;;;;;-0.34;46.99;100809.00;125773;1099;104159;-79
2021/03/12 03:09:41;;;;;;;12.57;4.57;;;;;;;-0.34;46.93;100798.69;125728;1098;107940;-79
2021/03/12 03:12:16;;;;;;;14.90;4.33;;;;;;;-0.35;46.20;100791.75;125727;1099;104392;-79
2021/03/12 03:14:46;;;;;;;13.67;4.23;;;;;;;-0.34;46.57;100789.30;125731;1098;104176;-80
2021/03/12 03:17:16;;;;;;;14.10;4.80;;;;;;;-0.34;46.10;100784.14;125679;1099;104249;-79
2021/03/12 03:19:49;;;;;;;14.13;4.57;;;;;;;-0.34;46.89;100778.98;125847;1098;104201;-79
2021/03/12 03:22:20;;;;;;;15.83;4.47;;;;;;;-0.33;47.27;100779.87;125772;1099;104239;-79
2021/03/12 03:24:49;;;;;;;15.67;4.47;;;;;;;-0.34;46.75;100775.48;125761;1099;104284;-80
2021/03/12 03:27:18;;;;;;;13.67;4.07;;;;;;;-0.35;47.72;100774.59;125722;1099;104281;-79
2021/03/12 03:29:47;;;;;;;15.30;4.50;;;;;;;-0.33;47.05;100762.72;125717;1099;104230;-79
2021/03/12 03:32:18;;;;;;;16.00;5.15;;;;;;;-0.30;47.06;100751.77;125717;1099;104067;-79
2021/03/12 03:34:47;;;;;;;20.57;5.73;;;;;;;-0.29;46.61;100757.05;125725;1099;104245;-79
2021/03/12 03:37:16;;;;;;;18.00;5.20;;;;;;;-0.25;47.40;100763.36;125746;1099;104163;-80
2021/03/12 03:39:46;;;;;;;17.87;5.47;;;;;;;-0.22;46.19;100742.98;125650;1099;104220;-80
2021/03/12 03:42:17;;;;;;;16.97;4.87;;;;;;;-0.20;47.13;100749.19;125683;1098;104159;-79
2021/03/12 03:44:49;;;;;;;14.73;5.00;;;;;;;-0.17;47.33;100751.09;125618;1099;104169;-80
2021/03/12 03:47:19;;;;;;;15.63;4.90;;;;;;;-0.16;46.88;100743.48;125697;1099;104281;-80
2021/03/12 03:49:48;;;;;;;17.63;5.23;;;;;;;-0.15;47.04;100753.03;125792;1100;104181;-79
2021/03/12 03:52:22;;;;;;;15.47;4.43;;;;;;;-0.15;49.61;100745.30;125691;1099;104223;-79
2021/03/12 03:54:59;;;;;;;22.00;6.10;;;;;;;-0.16;47.85;100735.74;125702;1099;104217;-79
2021/03/12 03:57:29;;;;;;;15.10;5.07;;;;;;;-0.16;49.72;100724.53;125707;1099;104163;-79
2021/03/12 04:00:01;;;;;;;22.07;5.70;;;;;;;-0.19;49.57;100712.28;125779;1099;104242;-78
2021/03/12 04:02:34;;;;;;;16.77;5.47;;;;;;;-0.22;50.66;100701.71;125716;1099;104175;-79
2021/03/12 04:05:06;;;;;;;16.57;5.23;;;;;;;-0.23;49.44;100697.35;125740;1099;104544;-79
2021/03/12 04:07:36;;;;;;;18.93;5.83;;;;;;;-0.24;49.94;100683.53;125769;1099;104172;-79
2021/03/12 04:10:07;;;;;;;20.17;6.67;;;;;;;-0.24;49.52;100664.59;125697;1099;104245;-79
2021/03/12 04:12:48;;;;;;;17.43;5.57;;;;;;;-0.25;49.20;100665.35;125680;1099;104162;-79
2021/03/12 04:15:19;;;;;;;18.20;5.53;;;;;;;-0.25;49.44;100660.20;125583;1099;104306;-79
2021/03/12 04:17:49;;;;;;;12.60;5.07;;;;;;;-0.23;49.72;100648.34;125556;1097;104175;-79
2021/03/12 04:20:20;;;;;;;18.17;5.80;;;;;;;-0.23;49.64;100651.82;125618;1098;104153;-79
2021/03/12 04:22:50;;;;;;;16.03;5.67;;;;;;;-0.22;49.80;100656.21;125621;1099;104069;-78
2021/03/12 04:25:21;;;;;;;20.73;6.40;;;;;;;-0.21;49.51;100664.84;125666;1099;104656;-79
2021/03/12 04:27:50;;;;;;;18.57;6.40;;;;;;;-0.20;49.51;100667.55;125632;1099;104175;-79
2021/03/12 04:30:26;;;;;;;15.80;5.07;;;;;;;-0.16;49.50;100662.63;125538;1099;104399;-79
2021/03/12 04:32:59;;;;;;;15.47;5.40;;;;;;;-0.16;49.20;100647.16;125502;1097;104316;-79
2021/03/12 04:35:30;;;;;;;16.80;6.33;;;;;;;-0.10;49.37;100645.96;125574;1099;104204;-79
2021/03/12 04:38:00;;;;;;;18.53;6.53;;;;;;;-0.06;49.66;100627.38;125620;1098;104236;-79
2021/03/12 04:40:29;;;;;;;17.57;6.27;;;;;;;-0.03;48.95;100634.48;125611;1099;104226;-79
2021/03/12 04:42:59;;;;;;;12.10;4.40;;;;;;;0.01;50.29;100633.03;125593;1098;104175;-79
2021/03/12 04:45:28;;;;;;;13.33;5.00;;;;;;;0.05;50.38;100627.31;125597;1099;104213;-79
2021/03/12 04:48:07;;;;;;;20.20;6.70;;;;;;;0.07;49.94;100636.99;125540;1099;104198;-78
2021/03/12 04:50:37;;;;;;;19.33;6.70;;;;;;;0.12;49.63;100632.20;125476;1099;104325;-79
2021/03/12 04:53:08;;;;;;;24.53;7.50;;;;;;;0.14;49.34;100636.71;125537;1099;104338;-78
2021/03/12 04:55:37;;;;;;;18.77;6.10;;;;;;;0.17;49.02;100636.03;125494;1099;104211;-79
2021/03/12 04:58:07;;;;;;;17.77;6.77;;;;;;;0.21;49.11;100638.09;125517;1099;104204;-79
2021/03/12 05:00:39;;;;;;;18.13;7.03;;;;;;;0.24;49.53;100629.70;125492;1099;104274;-79
2021/03/12 05:03:12;;;;;;;32.25;7.92;;;;;;;0.25;49.88;100632.41;125617;1099;104233;-79
2021/03/12 05:05:43;;;;;;;20.63;7.50;;;;;;;0.29;49.77;100646.44;125529;1098;104211;-80
2021/03/12 05:08:15;;;;;;;18.10;6.17;;;;;;;0.31;52.15;100625.14;125502;1099;104207;-79
2021/03/12 05:10:59;;;;;;;22.37;7.00;;;;;;;0.32;51.83;100647.57;125474;1099;104156;-79
2021/03/12 05:13:29;;;;;;;20.30;6.90;;;;;;;0.34;50.82;100643.45;125527;1099;104163;-79
2021/03/12 05:15:59;;;;;;;23.65;6.85;;;;;;;0.40;50.63;100648.17;125493;1099;104333;-79
2021/03/12 05:18:28;;;;;;;20.07;6.57;;;;;;;0.44;50.85;100659.67;125549;1099;104371;-80
2021/03/12 05:21:00;;;;;;;18.97;6.43;;;;;;;0.48;50.16;100653.94;125593;1099;104178;-79
2021/03/12 05:23:29;;;;;;;20.00;7.03;;;;;;;0.53;50.24;100652.61;125597;1099;104217;-79
2021/03/12 05:25:59;;;;;;;18.90;6.90;;;;;;;0.59;49.83;100658.25;125665;1099;104219;-81
2021/03/12 05:28:31;;;;;;;23.80;7.57;;;;;;;0.64;50.30;100656.95;125645;1099;104645;-80
2021/03/12 05:31:00;;;;;;;18.83;7.23;;;;;;;0.70;50.25;100656.50;125692;1099;104163;-80
2021/03/12 05:33:30;;;;;;;19.17;7.47;;;;;;;0.74;50.22;100655.97;125691;1099;104166;-80
2021/03/12 05:35:59;;;;;;;21.97;8.03;;;;;;;0.80;50.29;100624.56;125668;1099;104217;-80
2021/03/12 05:38:29;;;;;;;20.97;7.00;;;;;;;0.81;50.69;100655.67;125645;1099;104287;-80
2021/03/12 05:41:03;;;;;;;22.27;6.87;;;;;;;0.87;51.18;100629.39;125706;1099;104185;-81
2021/03/12 05:43:33;;;;;;;14.07;5.63;;;;;;;0.87;52.04;100658.73;125711;1097;104287;-80
2021/03/12 05:46:02;;;;;;;19.73;7.00;;;;;;;0.89;51.06;100682.99;125672;1099;104264;-80
2021/03/12 05:48:34;;;;;;;20.10;7.57;;;;;;;0.91;50.72;100670.19;125592;1099;104198;-80
2021/03/12 05:51:04;;;;;;;22.47;7.40;;;;;;;0.97;50.87;100664.60;125641;1097;105574;-80
2021/03/12 05:53:33;;;;;;;24.80;7.80;;;;;;;1.00;50.70;100670.01;125644;1099;104185;-81
2021/03/12 05:56:03;;;;;;;28.83;8.73;;;;;;;1.08;50.53;100684.41;125718;1099;104098;-80
2021/03/12 05:58:41;;;;;;;21.30;6.73;;;;;;;1.18;52.03;100673.08;125616;1099;105028;-80
2021/03/12 06:01:10;;;;;;;22.03;7.60;;;;;;;1.26;51.02;100677.13;125573;1099;102375;-80
2021/03/12 06:03:43;;;;;;;23.43;8.00;;;;;;;1.33;50.74;100663.89;125722;1099;104408;-81
2021/03/12 06:06:13;;;;;;;27.77;9.13;;;;;;;1.35;50.65;100675.23;125602;1099;102165;-80
2021/03/12 06:08:45;;;;;;;25.33;9.97;;;;;;;1.39;50.67;100684.15;125525;1099;104432;-80
2021/03/12 06:11:18;;;;;;;25.93;8.97;;;;;;;1.42;50.65;100685.27;125591;1099;104165;-81
2021/03/12 06:13:50;;;;;;;27.43;11.43;;;;;;;1.48;50.77;100681.33;125544;1099;104358;-81
2021/03/12 06:16:26;;;;;;;24.70;8.63;;;;;;;1.49;51.32;100680.56;125676;1099;104207;-81
2021/03/12 06:19:15;;;;;;;31.67;11.77;;;;;;;1.47;51.10;100669.21;125494;1099;104211;-79
2021/03/12 06:21:48;;;;;;;31.33;11.73;;;;;;;1.47;50.91;100676.97;125034;1099;104220;-80
2021/03/12 06:24:25;;;;;;;27.97;11.17;;;;;;;1.49;51.64;100655.59;125547;1098;104430;-79
2021/03/12 06:27:24;;;;;;;31.30;12.17;;;;;;;1.54;51.01;100663.69;125551;1099;104329;-79
2021/03/12 06:30:01;;;;;;;27.30;10.17;;;;;;;1.62;51.46;100654.80;125065;1099;104238;-80
2021/03/12 06:32:51;;;;;;;32.40;11.87;;;;;;;1.69;51.50;100654.48;125552;1099;102264;-80
2021/03/12 06:35:40;;;;;;;31.23;12.37;;;;;;;1.77;51.10;100662.80;125844;1099;104211;-79
2021/03/12 06:38:18;;;;;;;29.17;12.37;;;;;;;1.86;50.93;100668.66;125589;1099;104271;-78
2021/03/12 06:41:00;;;;;;;30.57;12.97;;;;;;;1.92;50.81;100682.04;125542;1099;104344;-78
2021/03/12 06:43:38;;;;;;;31.90;12.77;;;;;;;1.97;50.82;100661.67;124929;1102;104370;-80
2021/03/12 06:46:07;;;;;;;25.90;11.63;;;;;;;2.03;50.74;100664.70;125025;1102;104200;-80
2021/03/12 06:49:07;;;;;;;29.53;12.60;;;;;;;2.10;50.78;100676.39;124992;1101;104415;-81
2021/03/12 06:52:11;;;;;;;33.90;12.87;;;;;;;2.20;51.20;100673.69;124835;1102;104169;-78
2021/03/12 06:54:56;;;;;;;26.27;11.17;;;;;;;2.29;50.91;100656.22;125112;1102;104254;-77
2021/03/12 06:57:40;;;;;;;29.80;12.60;;;;;;;2.37;51.17;100664.54;124890;1102;104210;-77
2021/03/12 07:00:32;;;;;;;28.73;11.00;;;;;;;2.48;50.91;100657.53;124896;1100;104325;-77
2021/03/12 07:03:18;;;;;;;28.13;11.30;;;;;;;2.57;50.82;100665.95;125017;1099;104507;-78
2021/03/12 07:06:00;;;;;;;34.87;13.63;;;;;;;2.64;50.59;100668.16;125437;1098;104207;-77
2021/03/12 07:08:37;;;;;;;31.62;11.83;;;;;;;2.68;50.28;100656.30;125494;1099;104354;-77
2021/03/12 07:11:23;;;;;;;28.30;12.20;;;;;;;2.68;49.80;100661.48;125533;1099;104342;-78
2021/03/12 07:14:10;;;;;;;27.50;11.23;;;;;;;2.64;50.03;100651.72;125500;1099;104353;-79
2021/03/12 07:16:47;;;;;;;31.67;12.67;;;;;;;2.65;50.36;100651.83;125062;1099;104412;-80
2021/03/12 07:19:16;;;;;;;24.90;11.07;;;;;;;2.68;50.10;100632.98;125474;1099;104392;-78
2021/03/12 07:21:49;;;;;;;27.70;11.33;;;;;;;2.71;49.61;100628.02;125245;1099;104322;-78
2021/03/12 07:24:23;;;;;;;25.63;12.03;;;;;;;2.80;49.91;100636.42;125634;1099;104647;-79
2021/03/12 07:26:57;;;;;;;28.10;11.73;;;;;;;2.87;49.75;100625.70;125636;1099;104172;-79
2021/03/12 07:29:32;;;;;;;23.63;10.20;;;;;;;2.98;49.44;100615.17;125595;1099;104171;-78
2021/03/12 07:32:14;;;;;;;22.93;9.87;;;;;;;3.10;49.76;100636.75;124907;1099;104254;-78
2021/03/12 07:34:45;;;;;;;27.27;9.73;;;;;;;3.22;48.93;100629.77;124876;1102;104227;-80
2021/03/12 07:37:36;;;;;;;29.00;9.83;;;;;;;3.27;48.34;100629.19;124910;1102;104210;-80
2021/03/12 07:40:11;;;;;;;26.97;10.10;;;;;;;3.34;48.74;100628.81;124925;1102;104261;-79
2021/03/12 07:42:43;;;;;;;25.03;10.33;;;;;;;3.35;49.42;100613.34;125009;1102;104479;-79
2021/03/12 07:45:31;;;;;;;21.57;8.40;;;;;;;3.49;47.86;100629.83;124889;1102;104248;-80
2021/03/12 07:51:22;;;;;;;23.63;8.67;;;;;;;3.46;47.70;100623.52;124946;1099;104245;-79
2021/03/12 07:53:57;;;;;;;21.13;8.30;;;;;;;3.47;47.87;100622.73;124899;1099;104159;-78
2021/03/12 07:56:55;;;;;;;23.43;8.70;;;;;;;3.50;48.01;100633.31;124876;1099;104345;-77
2021/03/12 08:00:00;;;;;;;20.40;7.80;;;;;;;3.58;47.48;100613.94;124883;1099;104162;-79
2021/03/12 08:03:08;;;;;;;23.77;8.77;;;;;;;3.63;48.66;100633.33;124948;1099;104179;-79
2021/03/12 08:05:58;;;;;;;22.50;8.70;;;;;;;3.73;48.31;100616.66;125650;1098;104205;-78
2021/03/12 08:08:41;;;;;;;22.83;8.27;;;;;;;3.80;48.11;100618.83;125620;1099;104219;-78
2021/03/12 08:11:37;;;;;;;22.60;9.67;;;;;;;3.84;47.71;100601.77;125593;1099;104293;-79
2021/03/12 08:14:22;;;;;;;25.50;8.40;;;;;;;3.84;47.67;100612.16;125570;1099;104425;-79
2021/03/12 08:17:21;;;;;;;20.83;8.37;;;;;;;3.84;47.35;100619.95;125608;1099;104421;-78
2021/03/12 08:20:35;;;;;;;22.40;8.33;;;;;;;3.81;46.49;100598.98;125546;1099;104383;-78
2021/03/12 08:23:34;;;;;;;18.43;6.63;;;;;;;3.68;47.39;100603.37;125562;1099;104293;-77
2021/03/12 08:26:46;;;;;;;25.27;8.73;;;;;;;3.61;47.42;100585.60;125544;1099;104211;-78
2021/03/12 08:29:43;;;;;;;21.83;7.27;;;;;;;3.52;47.23;100585.92;125187;1099;105745;-78
2021/03/12 08:32:44;;;;;;;19.27;6.90;;;;;;;3.45;47.25;100568.14;124914;1100;104204;-78
2021/03/12 08:35:40;;;;;;;19.63;6.30;;;;;;;3.38;47.04;100542.59;125164;1099;104322;-78
2021/03/12 08:38:43;;;;;;;20.50;6.77;;;;;;;3.37;47.51;100546.01;125014;1099;104169;-77
2021/03/12 08:41:41;;;;;;;19.70;6.93;;;;;;;3.36;46.86;100510.48;125538;1099;104216;-77
2021/03/12 08:44:28;;;;;;;19.50;6.03;;;;;;;3.34;47.23;100501.71;125472;1099;104341;-80
2021/03/12 08:47:08;;;;;;;18.57;6.00;;;;;;;3.32;46.16;100499.02;125526;1099;104360;-78
2021/03/12 08:49:43;;;;;;;15.80;5.53;;;;;;;3.30;46.92;100484.14;125314;1099;104184;-79
2021/03/12 08:52:17;;;;;;;16.43;5.63;;;;;;;3.28;46.83;100470.19;124935;1099;104396;-79
2021/03/12 08:54:54;;;;;;;16.00;5.60;;;;;;;3.31;46.97;100454.83;124903;1099;104417;-79
2021/03/12 08:57:25;;;;;;;20.87;6.60;;;;;;;3.38;46.63;100446.62;124887;1099;110511;-79
2021/03/12 09:00:11;;;;;;;17.37;6.30;;;;;;;3.43;47.00;100432.27;124917;1099;104329;-77
2021/03/12 09:03:16;;;;;;;19.83;5.00;;;;;;;3.50;46.27;100421.45;125034;1102;104194;-79
2021/03/12 09:06:01;;;;;;;23.35;5.50;;;;;;;3.56;47.62;100410.57;125187;1099;104290;-81
2021/03/12 09:08:42;;;;;;;17.60;4.97;;;;;;;3.59;46.81;100414.24;125540;1099;104222;-78
2021/03/12 09:11:29;;;;;;;16.80;4.80;;;;;;;3.60;45.79;100384.02;125469;1099;104306;-78
2021/03/12 09:14:21;;;;;;;22.40;5.00;;;;;;;3.64;46.18;100392.89;125534;1099;104185;-78
2021/03/12 09:17:00;;;;;;;16.80;5.13;;;;;;;3.66;45.90;100358.45;124896;1102;104380;-78
2021/03/12 09:19:33;;;;;;;24.37;4.83;;;;;;;3.69;46.42;100386.27;124877;1102;104800;-78
2021/03/12 09:22:07;;;;;;;23.60;5.10;;;;;;;3.70;46.25;100378.58;124870;1102;105653;-78
2021/03/12 09:24:54;;;;;;;28.00;5.70;;;;;;;3.71;46.52;100392.44;124898;1102;104531;-78
2021/03/12 09:27:59;;;;;;;21.97;5.10;;;;;;;3.67;46.10;100386.17;124859;1102;104364;-77
2021/03/12 09:30:31;;;;;;;16.90;5.03;;;;;;;3.66;46.64;100375.70;124946;1102;104178;-77
2021/03/12 09:33:26;;;;;;;18.90;5.20;;;;;;;3.68;46.57;100389.69;124876;1102;104347;-77
2021/03/12 09:36:01;;;;;;;18.33;4.93;;;;;;;3.72;46.92;100370.89;124885;1102;104389;-78
2021/03/12 09:38:37;;;;;;;15.57;4.63;;;;;;;3.76;46.74;100349.52;124858;1102;104187;-78
2021/03/12 09:41:19;;;;;;;17.23;4.40;;;;;;;3.80;46.65;100355.78;124860;1102;104383;-78
2021/03/12 09:44:04;;;;;;;19.90;4.73;;;;;;;3.90;46.80;100359.02;124921;1102;104482;-80
2021/03/12 09:46:39;;;;;;;16.65;4.80;;;;;;;4.04;46.26;100328.69;124917;1102;104396;-79
2021/03/12 09:49:12;;;;;;;14.73;4.40;;;;;;;4.09;45.50;100350.62;125560;1099;104178;-79
2021/03/12 09:51:46;;;;;;;17.70;4.80;;;;;;;4.15;45.32;100378.67;125592;1099;104267;-78
2021/03/12 09:54:17;;;;;;;18.03;4.50;;;;;;;4.18;45.63;100352.87;125594;1099;104169;-79
2021/03/12 09:56:56;;;;;;;23.20;4.90;;;;;;;4.21;46.13;100363.45;125623;1099;104711;-78
2021/03/12 09:59:27;;;;;;;;;;;;;;;4.19;45.12;100378.05;125658;1099;104184;-79
2021/03/12 10:02:10;;;;;;;11.27;3.57;;;;;;;4.16;45.01;100372.68;125521;1099;104213;-78
2021/03/12 10:05:01;;;;;;;23.67;4.37;;;;;;;4.12;45.87;100386.27;125603;1099;104175;-79
2021/03/12 10:07:47;;;;;;;14.47;4.30;;;;;;;4.07;46.36;100378.20;125546;1099;104252;-78
2021/03/12 10:10:32;;;;;;;22.37;5.47;;;;;;;4.04;45.66;100383.22;125641;1099;104264;-79
2021/03/12 10:13:06;;;;;;;16.83;4.80;;;;;;;4.02;46.12;100368.34;125677;1099;104173;-80
2021/03/12 10:15:46;;;;;;;17.77;5.23;;;;;;;4.00;46.09;100394.21;125688;1099;104376;-80
2021/03/12 10:18:30;;;;;;;13.03;5.15;;;;;;;4.04;45.78;100383.22;125555;1099;104175;-76
2021/03/12 10:21:09;;;;;;;15.37;4.43;;;;;;;4.06;46.02;100372.92;125619;1098;104208;-75
2021/03/12 10:23:39;;;;;;;15.90;4.63;;;;;;;4.05;45.96;100381.51;125624;1099;104296;-80
2021/03/12 10:26:13;;;;;;;22.50;5.50;;;;;;;4.04;45.89;100383.22;125648;1099;104163;-79
2021/03/12 10:28:46;;;;;;;;;;;;;;;4.01;46.83;100392.53;125592;1099;104227;-78
2021/03/12 10:31:17;;;;;;;13.93;5.60;;;;;;;3.96;47.06;100408.72;125610;1099;104415;-80
2021/03/12 10:33:52;;;;;;;13.53;4.60;;;;;;;3.85;47.51;100394.20;125774;1099;104178;-79
2021/03/12 10:36:21;;;;;;;22.90;5.23;;;;;;;3.75;47.86;100377.14;125567;1099;104201;-80
2021/03/12 10:38:53;;;;;;;16.43;5.57;;;;;;;3.68;48.33;100390.57;125619;1099;104288;-80
2021/03/12 10:41:26;;;;;;;20.70;6.10;;;;;;;3.58;50.49;100399.50;125614;1099;104156;-79
2021/03/12 10:44:05;;;;;;;14.07;5.53;;;;;;;3.45;50.11;100402.12;125461;1098;104176;-80
2021/03/12 10:46:39;;;;;;;23.80;6.70;;;;;;;3.31;48.96;100427.19;125602;1099;104325;-79
2021/03/12 10:49:09;;;;;;;20.23;6.83;;;;;;;3.12;48.96;100432.90;125564;1099;104582;-81
2021/03/12 10:51:40;;;;;;;17.10;7.07;;;;;;;2.94;49.62;100426.52;125621;1099;104293;-80
2021/03/12 10:54:13;;;;;;;25.37;7.67;;;;;;;2.75;51.12;100416.66;125620;1099;104159;-80
2021/03/12 10:56:48;;;;;;;20.03;8.07;;;;;;;2.58;52.08;100438.86;125614;1099;104314;-81
2021/03/12 10:59:17;;;;;;;20.07;6.47;;;;;;;2.38;52.66;100430.64;125707;1098;104233;-82
2021/03/12 11:01:48;;;;;;;22.53;8.40;;;;;;;2.22;51.74;100428.72;125584;1099;104377;-80
2021/03/12 11:04:19;;;;;;;19.87;7.87;;;;;;;2.16;53.16;100429.19;125620;1099;104159;-82
2021/03/12 11:06:48;;;;;;;21.55;8.45;;;;;;;2.03;53.46;100423.98;125605;1099;104165;-80
2021/03/12 11:09:18;;;;;;;15.63;6.60;;;;;;;1.94;56.78;100413.00;125591;1099;104215;-80
2021/03/12 11:11:48;;;;;;;20.70;8.00;;;;;;;1.84;53.58;100432.18;125609;1099;104169;-82
2021/03/12 11:14:20;;;;;;;21.87;8.77;;;;;;;1.73;54.37;100420.16;125551;1099;104070;-80
2021/03/12 11:16:56;;;;;;;18.43;7.07;;;;;;;1.71;55.23;100421.75;125582;1099;104169;-79
2021/03/12 11:19:28;;;;;;;23.47;8.23;;;;;;;1.68;54.25;100398.27;125647;1099;104432;-81
2021/03/12 11:21:58;;;;;;;19.30;6.87;;;;;;;1.65;57.16;100387.70;125586;1099;104245;-79
2021/03/12 11:24:31;;;;;;;16.93;7.33;;;;;;;1.61;56.78;100382.31;125830;1099;102152;-79
2021/03/12 11:27:06;;;;;;;16.60;7.53;;;;;;;1.60;56.04;100371.86;125709;1098;104153;-80
2021/03/12 11:29:35;;;;;;;17.17;6.77;;;;;;;1.63;59.85;100369.48;125675;1099;104187;-79
2021/03/12 11:32:05;;;;;;;16.90;7.37;;;;;;;1.65;57.25;100364.42;125827;1098;104353;-79
2021/03/12 11:34:37;;;;;;;17.27;7.00;;;;;;;1.68;58.61;100364.63;125842;1099;104319;-80
2021/03/12 11:37:08;;;;;;;17.10;7.00;;;;;;;1.73;61.85;100363.25;126142;1099;102932;-80
2021/03/12 11:39:41;;;;;;;16.03;5.90;;;;;;;1.72;62.29;100349.43;126259;1099;102855;-80
2021/03/12 11:42:15;;;;;;;17.60;7.03;;;;;;;1.72;61.87;100348.55;126128;1098;102349;-79
2021/03/12 11:44:51;;;;;;;14.17;6.47;;;;;;;1.74;63.37;100353.00;125853;1099;104304;-81
2021/03/12 11:47:27;;;;;;;12.70;6.40;;;;;;;1.71;63.44;100347.62;126052;1099;104166;-79
2021/03/12 11:49:57;;;;;;;15.77;7.00;;;;;;;1.70;62.91;100361.38;125731;1099;104159;-80